sensor_id;sensor_type;location;lat;lon;timestamp;P1;durP1;ratioP1;P2;durP2;ratioP2
43891;SDS011;29555;45.350;5.578;2022-08-01T00:00:35;2.55;;;0.88;;
43891;SDS011;29555;45.350;5.578;2022-08-01T00:03:00;2.42;;;1.85;;
43891;SDS011;29555;45.350;5.578;2022-08-01T00:05:26;1.40;;;1.23;;
43891;SDS011;29555;45.350;5.578;2022-08-01T00:07:51;9.32;;;1.23;;
43891;SDS011;29555;45.350;5.578;2022-08-01T00:10:17;1.08;;;1.08;;
43891;SDS011;29555;45.350;5.578;2022-08-01T00:12:43;2.70;;;1.02;;
43891;SDS011;29555;45.350;5.578;2022-08-01T00:15:10;1.38;;;1.15;;
43891;SDS011;29555;45.350;5.578;2022-08-01T00:17:37;1.25;;;1.25;;
43891;SDS011;29555;45.350;5.578;2022-08-01T00:20:04;3.67;;;1.45;;
43891;SDS011;29555;45.350;5.578;2022-08-01T00:22:31;1.42;;;1.27;;
43891;SDS011;29555;45.350;5.578;2022-08-01T00:24:57;6.47;;;1.88;;
43891;SDS011;29555;45.350;5.578;2022-08-01T00:27:22;1.55;;;1.10;;
43891;SDS011;29555;45.350;5.578;2022-08-01T00:29:48;1.10;;;1.00;;
43891;SDS011;29555;45.350;5.578;2022-08-01T00:32:13;1.73;;;1.60;;
43891;SDS011;29555;45.350;5.578;2022-08-01T00:34:38;3.17;;;1.58;;
43891;SDS011;29555;45.350;5.578;2022-08-01T00:37:04;1.02;;;1.02;;
43891;SDS011;29555;45.350;5.578;2022-08-01T00:39:29;1.02;;;1.02;;
43891;SDS011;29555;45.350;5.578;2022-08-01T00:41:56;1.70;;;1.60;;
43891;SDS011;29555;45.350;5.578;2022-08-01T00:44:23;2.80;;;1.50;;
43891;SDS011;29555;45.350;5.578;2022-08-01T00:46:48;2.50;;;1.10;;
43891;SDS011;29555;45.350;5.578;2022-08-01T00:49:13;11.90;;;1.27;;
43891;SDS011;29555;45.350;5.578;2022-08-01T00:51:39;8.15;;;1.30;;
43891;SDS011;29555;45.350;5.578;2022-08-01T00:54:04;7.03;;;2.08;;
43891;SDS011;29555;45.350;5.578;2022-08-01T00:56:30;1.70;;;1.45;;
43891;SDS011;29555;45.350;5.578;2022-08-01T00:58:56;2.55;;;2.35;;
43891;SDS011;29555;45.350;5.578;2022-08-01T01:01:21;1.58;;;1.05;;
43891;SDS011;29555;45.350;5.578;2022-08-01T01:03:48;2.35;;;2.15;;
43891;SDS011;29555;45.350;5.578;2022-08-01T01:06:17;1.65;;;0.90;;
43891;SDS011;29555;45.350;5.578;2022-08-01T01:11:44;2.20;;;1.83;;
43891;SDS011;29555;45.350;5.578;2022-08-01T01:14:18;1.52;;;1.30;;
43891;SDS011;29555;45.350;5.578;2022-08-01T01:16:52;9.00;;;2.03;;
43891;SDS011;29555;45.350;5.578;2022-08-01T01:19:20;1.85;;;1.15;;
43891;SDS011;29555;45.350;5.578;2022-08-01T01:29:56;1.88;;;1.42;;
43891;SDS011;29555;45.350;5.578;2022-08-01T01:32:26;1.25;;;1.25;;
43891;SDS011;29555;45.350;5.578;2022-08-01T01:34:59;1.23;;;1.13;;
43891;SDS011;29555;45.350;5.578;2022-08-01T01:37:28;1.75;;;1.17;;
43891;SDS011;29555;45.350;5.578;2022-08-01T01:39:56;1.30;;;1.17;;
43891;SDS011;29555;45.350;5.578;2022-08-01T01:42:21;1.77;;;1.30;;
43891;SDS011;29555;45.350;5.578;2022-08-01T01:44:50;1.30;;;0.98;;
43891;SDS011;29555;45.350;5.578;2022-08-01T01:47:16;1.52;;;1.42;;
43891;SDS011;29555;45.350;5.578;2022-08-01T01:49:43;1.55;;;1.48;;
43891;SDS011;29555;45.350;5.578;2022-08-01T01:52:11;3.35;;;1.67;;
43891;SDS011;29555;45.350;5.578;2022-08-01T01:54:40;7.97;;;2.10;;
43891;SDS011;29555;45.350;5.578;2022-08-01T01:57:09;3.90;;;1.23;;
43891;SDS011;29555;45.350;5.578;2022-08-01T01:59:37;1.05;;;1.05;;
43891;SDS011;29555;45.350;5.578;2022-08-01T02:02:04;1.48;;;1.38;;
43891;SDS011;29555;45.350;5.578;2022-08-01T02:04:30;6.63;;;1.48;;
43891;SDS011;29555;45.350;5.578;2022-08-01T02:06:57;3.85;;;1.00;;
43891;SDS011;29555;45.350;5.578;2022-08-01T02:09:26;2.55;;;1.92;;
43891;SDS011;29555;45.350;5.578;2022-08-01T02:11:52;1.80;;;1.40;;
43891;SDS011;29555;45.350;5.578;2022-08-01T02:14:18;1.08;;;1.08;;
43891;SDS011;29555;45.350;5.578;2022-08-01T02:16:47;1.10;;;1.02;;
43891;SDS011;29555;45.350;5.578;2022-08-01T02:19:14;2.00;;;1.35;;
43891;SDS011;29555;45.350;5.578;2022-08-01T02:21:51;3.20;;;1.38;;
43891;SDS011;29555;45.350;5.578;2022-08-01T02:24:24;1.65;;;1.55;;
43891;SDS011;29555;45.350;5.578;2022-08-01T02:26:57;1.02;;;1.00;;
43891;SDS011;29555;45.350;5.578;2022-08-01T02:30:08;2.95;;;1.35;;
43891;SDS011;29555;45.350;5.578;2022-08-01T02:32:32;4.65;;;1.98;;
43891;SDS011;29555;45.350;5.578;2022-08-01T02:35:07;1.98;;;1.25;;
43891;SDS011;29555;45.350;5.578;2022-08-01T02:37:52;1.83;;;1.20;;
43891;SDS011;29555;45.350;5.578;2022-08-01T02:40:19;2.60;;;1.20;;
43891;SDS011;29555;45.350;5.578;2022-08-01T02:42:47;1.90;;;1.20;;
43891;SDS011;29555;45.350;5.578;2022-08-01T02:45:17;1.73;;;1.45;;
43891;SDS011;29555;45.350;5.578;2022-08-01T02:47:43;2.33;;;1.65;;
43891;SDS011;29555;45.350;5.578;2022-08-01T02:50:10;1.73;;;1.58;;
43891;SDS011;29555;45.350;5.578;2022-08-01T02:52:38;1.17;;;1.17;;
43891;SDS011;29555;45.350;5.578;2022-08-01T02:55:05;1.20;;;1.10;;
43891;SDS011;29555;45.350;5.578;2022-08-01T02:57:31;2.95;;;1.38;;
43891;SDS011;29555;45.350;5.578;2022-08-01T02:59:58;1.88;;;1.42;;
43891;SDS011;29555;45.350;5.578;2022-08-01T03:02:24;2.47;;;1.42;;
43891;SDS011;29555;45.350;5.578;2022-08-01T03:04:51;2.53;;;1.20;;
43891;SDS011;29555;45.350;5.578;2022-08-01T03:07:17;1.55;;;1.45;;
43891;SDS011;29555;45.350;5.578;2022-08-01T03:09:45;3.72;;;1.88;;
43891;SDS011;29555;45.350;5.578;2022-08-01T03:12:15;1.52;;;1.42;;
43891;SDS011;29555;45.350;5.578;2022-08-01T03:14:44;1.10;;;1.10;;
43891;SDS011;29555;45.350;5.578;2022-08-01T03:17:11;1.85;;;1.25;;
43891;SDS011;29555;45.350;5.578;2022-08-01T03:19:38;0.70;;;0.70;;
43891;SDS011;29555;45.350;5.578;2022-08-01T03:22:08;1.63;;;1.52;;
43891;SDS011;29555;45.350;5.578;2022-08-01T03:24:36;1.10;;;1.10;;
43891;SDS011;29555;45.350;5.578;2022-08-01T03:27:04;1.15;;;1.15;;
43891;SDS011;29555;45.350;5.578;2022-08-01T03:29:31;2.20;;;1.23;;
43891;SDS011;29555;45.350;5.578;2022-08-01T03:31:58;1.45;;;1.35;;
43891;SDS011;29555;45.350;5.578;2022-08-01T03:34:25;2.33;;;1.23;;
43891;SDS011;29555;45.350;5.578;2022-08-01T03:39:25;3.58;;;1.40;;
43891;SDS011;29555;45.350;5.578;2022-08-01T03:41:55;2.72;;;1.65;;
43891;SDS011;29555;45.350;5.578;2022-08-01T03:44:33;1.67;;;1.58;;
43891;SDS011;29555;45.350;5.578;2022-08-01T03:47:04;1.55;;;1.42;;
43891;SDS011;29555;45.350;5.578;2022-08-01T03:49:32;1.73;;;1.30;;
43891;SDS011;29555;45.350;5.578;2022-08-01T03:52:03;2.45;;;1.88;;
43891;SDS011;29555;45.350;5.578;2022-08-01T03:54:32;6.18;;;1.80;;
43891;SDS011;29555;45.350;5.578;2022-08-01T03:57:00;1.98;;;1.88;;
43891;SDS011;29555;45.350;5.578;2022-08-01T03:59:27;2.28;;;1.85;;
43891;SDS011;29555;45.350;5.578;2022-08-01T04:01:54;1.38;;;1.27;;
43891;SDS011;29555;45.350;5.578;2022-08-01T04:04:20;2.83;;;1.10;;
43891;SDS011;29555;45.350;5.578;2022-08-01T04:06:46;2.05;;;1.85;;
43891;SDS011;29555;45.350;5.578;2022-08-01T04:09:15;3.30;;;1.40;;
43891;SDS011;29555;45.350;5.578;2022-08-01T04:11:41;1.42;;;1.33;;
43891;SDS011;29555;45.350;5.578;2022-08-01T04:14:06;3.67;;;1.48;;
43891;SDS011;29555;45.350;5.578;2022-08-01T04:16:32;3.17;;;1.80;;
43891;SDS011;29555;45.350;5.578;2022-08-01T04:18:57;2.80;;;1.85;;
43891;SDS011;29555;45.350;5.578;2022-08-01T04:21:24;1.98;;;1.77;;
43891;SDS011;29555;45.350;5.578;2022-08-01T04:23:54;1.55;;;1.45;;
43891;SDS011;29555;45.350;5.578;2022-08-01T04:26:24;1.33;;;1.23;;
43891;SDS011;29555;45.350;5.578;2022-08-01T04:28:50;5.10;;;1.58;;
43891;SDS011;29555;45.350;5.578;2022-08-01T04:31:19;0.98;;;0.98;;
43891;SDS011;29555;45.350;5.578;2022-08-01T04:33:46;2.65;;;2.35;;
43891;SDS011;29555;45.350;5.578;2022-08-01T04:36:14;1.25;;;1.25;;
43891;SDS011;29555;45.350;5.578;2022-08-01T04:38:42;1.23;;;1.02;;
43891;SDS011;29555;45.350;5.578;2022-08-01T04:41:11;1.58;;;1.33;;
43891;SDS011;29555;45.350;5.578;2022-08-01T04:43:38;1.45;;;1.35;;
43891;SDS011;29555;45.350;5.578;2022-08-01T04:46:03;2.13;;;1.90;;
43891;SDS011;29555;45.350;5.578;2022-08-01T04:48:31;1.55;;;1.38;;
43891;SDS011;29555;45.350;5.578;2022-08-01T04:50:58;2.00;;;1.52;;
43891;SDS011;29555;45.350;5.578;2022-08-01T04:53:24;3.42;;;1.23;;
43891;SDS011;29555;45.350;5.578;2022-08-01T04:55:51;2.50;;;2.35;;
43891;SDS011;29555;45.350;5.578;2022-08-01T04:58:16;1.90;;;1.77;;
43891;SDS011;29555;45.350;5.578;2022-08-01T05:00:41;1.65;;;1.35;;
43891;SDS011;29555;45.350;5.578;2022-08-01T05:03:07;2.67;;;1.65;;
43891;SDS011;29555;45.350;5.578;2022-08-01T05:05:33;3.47;;;1.90;;
43891;SDS011;29555;45.350;5.578;2022-08-01T05:07:58;1.45;;;1.35;;
43891;SDS011;29555;45.350;5.578;2022-08-01T05:10:25;2.05;;;1.35;;
43891;SDS011;29555;45.350;5.578;2022-08-01T05:12:51;3.08;;;1.05;;
43891;SDS011;29555;45.350;5.578;2022-08-01T05:15:16;3.78;;;1.85;;
43891;SDS011;29555;45.350;5.578;2022-08-01T05:17:42;2.00;;;1.90;;
43891;SDS011;29555;45.350;5.578;2022-08-01T05:20:07;2.47;;;1.85;;
43891;SDS011;29555;45.350;5.578;2022-08-01T05:22:33;2.08;;;1.38;;
43891;SDS011;29555;45.350;5.578;2022-08-01T05:24:58;3.00;;;2.17;;
43891;SDS011;29555;45.350;5.578;2022-08-01T05:27:24;4.18;;;2.47;;
43891;SDS011;29555;45.350;5.578;2022-08-01T05:29:50;3.47;;;1.20;;
43891;SDS011;29555;45.350;5.578;2022-08-01T05:32:15;2.10;;;1.58;;
43891;SDS011;29555;45.350;5.578;2022-08-01T05:34:40;2.33;;;1.80;;
43891;SDS011;29555;45.350;5.578;2022-08-01T05:37:06;1.83;;;1.70;;
43891;SDS011;29555;45.350;5.578;2022-08-01T05:39:32;1.88;;;1.08;;
43891;SDS011;29555;45.350;5.578;2022-08-01T05:41:57;3.05;;;1.80;;
43891;SDS011;29555;45.350;5.578;2022-08-01T05:44:23;1.15;;;0.95;;
43891;SDS011;29555;45.350;5.578;2022-08-01T05:46:49;1.25;;;1.13;;
43891;SDS011;29555;45.350;5.578;2022-08-01T05:49:14;4.45;;;1.63;;
43891;SDS011;29555;45.350;5.578;2022-08-01T05:51:39;1.02;;;1.02;;
43891;SDS011;29555;45.350;5.578;2022-08-01T05:54:05;1.45;;;1.35;;
43891;SDS011;29555;45.350;5.578;2022-08-01T05:56:30;1.90;;;1.80;;
43891;SDS011;29555;45.350;5.578;2022-08-01T05:58:56;2.97;;;1.48;;
43891;SDS011;29555;45.350;5.578;2022-08-01T06:01:21;2.42;;;2.13;;
43891;SDS011;29555;45.350;5.578;2022-08-01T06:03:46;2.15;;;1.33;;
43891;SDS011;29555;45.350;5.578;2022-08-01T06:06:12;1.88;;;1.77;;
43891;SDS011;29555;45.350;5.578;2022-08-01T06:08:39;1.77;;;1.55;;
43891;SDS011;29555;45.350;5.578;2022-08-01T06:11:04;1.55;;;1.48;;
43891;SDS011;29555;45.350;5.578;2022-08-01T06:13:30;1.52;;;1.40;;
43891;SDS011;29555;45.350;5.578;2022-08-01T06:15:55;1.75;;;1.65;;
43891;SDS011;29555;45.350;5.578;2022-08-01T06:18:21;1.40;;;1.30;;
43891;SDS011;29555;45.350;5.578;2022-08-01T06:20:46;2.17;;;1.70;;
43891;SDS011;29555;45.350;5.578;2022-08-01T06:23:12;1.98;;;1.88;;
43891;SDS011;29555;45.350;5.578;2022-08-01T06:25:38;0.98;;;0.98;;
43891;SDS011;29555;45.350;5.578;2022-08-01T06:28:03;5.00;;;1.35;;
43891;SDS011;29555;45.350;5.578;2022-08-01T06:30:29;5.05;;;2.30;;
43891;SDS011;29555;45.350;5.578;2022-08-01T06:32:54;2.47;;;2.38;;
43891;SDS011;29555;45.350;5.578;2022-08-01T06:35:24;2.88;;;2.47;;
43891;SDS011;29555;45.350;5.578;2022-08-01T06:37:51;1.92;;;1.83;;
43891;SDS011;29555;45.350;5.578;2022-08-01T06:40:16;5.82;;;1.83;;
43891;SDS011;29555;45.350;5.578;2022-08-01T06:42:43;3.80;;;1.88;;
43891;SDS011;29555;45.350;5.578;2022-08-01T06:45:11;1.95;;;1.75;;
43891;SDS011;29555;45.350;5.578;2022-08-01T06:47:37;1.60;;;1.52;;
43891;SDS011;29555;45.350;5.578;2022-08-01T06:50:04;1.63;;;1.52;;
43891;SDS011;29555;45.350;5.578;2022-08-01T06:52:30;2.47;;;1.98;;
43891;SDS011;29555;45.350;5.578;2022-08-01T06:54:56;1.60;;;1.50;;
43891;SDS011;29555;45.350;5.578;2022-08-01T06:57:21;1.98;;;1.88;;
43891;SDS011;29555;45.350;5.578;2022-08-01T06:59:46;2.90;;;2.00;;
43891;SDS011;29555;45.350;5.578;2022-08-01T07:02:12;1.38;;;1.38;;
43891;SDS011;29555;45.350;5.578;2022-08-01T07:04:37;9.88;;;2.63;;
43891;SDS011;29555;45.350;5.578;2022-08-01T07:07:03;8.32;;;2.78;;
43891;SDS011;29555;45.350;5.578;2022-08-01T07:09:28;2.80;;;2.05;;
43891;SDS011;29555;45.350;5.578;2022-08-01T07:11:54;2.00;;;1.80;;
43891;SDS011;29555;45.350;5.578;2022-08-01T07:14:23;2.65;;;1.73;;
43891;SDS011;29555;45.350;5.578;2022-08-01T07:16:49;6.20;;;1.88;;
43891;SDS011;29555;45.350;5.578;2022-08-01T07:19:15;2.88;;;1.67;;
43891;SDS011;29555;45.350;5.578;2022-08-01T07:21:40;1.42;;;1.33;;
43891;SDS011;29555;45.350;5.578;2022-08-01T07:24:10;5.70;;;1.73;;
43891;SDS011;29555;45.350;5.578;2022-08-01T07:26:37;2.10;;;2.00;;
43891;SDS011;29555;45.350;5.578;2022-08-01T07:29:03;2.20;;;1.85;;
43891;SDS011;29555;45.350;5.578;2022-08-01T07:31:28;1.38;;;1.38;;
43891;SDS011;29555;45.350;5.578;2022-08-01T07:33:54;5.00;;;1.77;;
43891;SDS011;29555;45.350;5.578;2022-08-01T07:36:19;1.85;;;1.33;;
43891;SDS011;29555;45.350;5.578;2022-08-01T07:38:45;1.95;;;1.85;;
43891;SDS011;29555;45.350;5.578;2022-08-01T07:41:11;2.00;;;1.90;;
43891;SDS011;29555;45.350;5.578;2022-08-01T07:43:36;2.45;;;2.00;;
43891;SDS011;29555;45.350;5.578;2022-08-01T07:46:02;1.45;;;1.35;;
43891;SDS011;29555;45.350;5.578;2022-08-01T07:48:28;2.65;;;2.05;;
43891;SDS011;29555;45.350;5.578;2022-08-01T07:50:54;1.33;;;1.33;;
43891;SDS011;29555;45.350;5.578;2022-08-01T07:53:19;2.10;;;1.98;;
43891;SDS011;29555;45.350;5.578;2022-08-01T07:55:45;4.95;;;1.67;;
43891;SDS011;29555;45.350;5.578;2022-08-01T07:58:10;6.78;;;2.42;;
43891;SDS011;29555;45.350;5.578;2022-08-01T08:00:36;2.22;;;1.83;;
43891;SDS011;29555;45.350;5.578;2022-08-01T08:03:02;7.75;;;2.78;;
43891;SDS011;29555;45.350;5.578;2022-08-01T08:05:28;1.60;;;1.50;;
43891;SDS011;29555;45.350;5.578;2022-08-01T08:07:53;1.95;;;1.85;;
43891;SDS011;29555;45.350;5.578;2022-08-01T08:10:19;2.05;;;1.95;;
43891;SDS011;29555;45.350;5.578;2022-08-01T08:12:44;7.35;;;1.92;;
43891;SDS011;29555;45.350;5.578;2022-08-01T08:15:13;3.45;;;2.17;;
43891;SDS011;29555;45.350;5.578;2022-08-01T08:17:38;1.75;;;1.65;;
43891;SDS011;29555;45.350;5.578;2022-08-01T08:20:05;2.33;;;1.83;;
43891;SDS011;29555;45.350;5.578;2022-08-01T08:22:31;1.90;;;1.80;;
43891;SDS011;29555;45.350;5.578;2022-08-01T08:24:57;2.92;;;2.58;;
43891;SDS011;29555;45.350;5.578;2022-08-01T08:27:22;1.65;;;1.55;;
43891;SDS011;29555;45.350;5.578;2022-08-01T08:29:48;1.52;;;1.50;;
43891;SDS011;29555;45.350;5.578;2022-08-01T08:32:13;1.95;;;1.85;;
43891;SDS011;29555;45.350;5.578;2022-08-01T08:34:38;5.78;;;1.90;;
43891;SDS011;29555;45.350;5.578;2022-08-01T08:37:04;2.53;;;2.33;;
43891;SDS011;29555;45.350;5.578;2022-08-01T08:39:29;2.85;;;2.28;;
43891;SDS011;29555;45.350;5.578;2022-08-01T08:41:59;2.17;;;2.05;;
43891;SDS011;29555;45.350;5.578;2022-08-01T08:44:27;1.90;;;1.60;;
43891;SDS011;29555;45.350;5.578;2022-08-01T08:46:52;3.00;;;2.72;;
43891;SDS011;29555;45.350;5.578;2022-08-01T08:49:25;2.22;;;2.03;;
43891;SDS011;29555;45.350;5.578;2022-08-01T08:54:21;5.28;;;2.03;;
43891;SDS011;29555;45.350;5.578;2022-08-01T08:56:48;4.82;;;2.22;;
43891;SDS011;29555;45.350;5.578;2022-08-01T08:59:16;11.05;;;2.03;;
43891;SDS011;29555;45.350;5.578;2022-08-01T09:01:42;1.63;;;1.52;;
43891;SDS011;29555;45.350;5.578;2022-08-01T09:04:09;1.75;;;1.48;;
43891;SDS011;29555;45.350;5.578;2022-08-01T09:06:35;1.60;;;1.50;;
43891;SDS011;29555;45.350;5.578;2022-08-01T09:09:01;4.25;;;1.85;;
43891;SDS011;29555;45.350;5.578;2022-08-01T09:11:27;3.47;;;1.42;;
43891;SDS011;29555;45.350;5.578;2022-08-01T09:16:31;1.80;;;1.70;;
43891;SDS011;29555;45.350;5.578;2022-08-01T09:22:00;1.90;;;1.80;;
43891;SDS011;29555;45.350;5.578;2022-08-01T09:24:28;2.05;;;1.95;;
43891;SDS011;29555;45.350;5.578;2022-08-01T09:26:54;1.95;;;1.85;;
43891;SDS011;29555;45.350;5.578;2022-08-01T09:29:24;2.00;;;1.90;;
43891;SDS011;29555;45.350;5.578;2022-08-01T09:31:54;2.42;;;2.33;;
43891;SDS011;29555;45.350;5.578;2022-08-01T09:34:27;2.83;;;1.85;;
43891;SDS011;29555;45.350;5.578;2022-08-01T09:36:56;2.50;;;1.88;;
43891;SDS011;29555;45.350;5.578;2022-08-01T09:39:26;1.63;;;1.52;;
43891;SDS011;29555;45.350;5.578;2022-08-01T09:41:55;2.03;;;1.88;;
43891;SDS011;29555;45.350;5.578;2022-08-01T09:44:40;1.85;;;1.75;;
43891;SDS011;29555;45.350;5.578;2022-08-01T09:47:07;5.90;;;2.90;;
43891;SDS011;29555;45.350;5.578;2022-08-01T09:49:33;2.22;;;1.52;;
43891;SDS011;29555;45.350;5.578;2022-08-01T09:52:22;1.00;;;1.00;;
43891;SDS011;29555;45.350;5.578;2022-08-01T09:54:56;1.90;;;1.38;;
43891;SDS011;29555;45.350;5.578;2022-08-01T09:57:24;1.02;;;1.02;;
43891;SDS011;29555;45.350;5.578;2022-08-01T09:59:51;0.90;;;0.90;;
43891;SDS011;29555;45.350;5.578;2022-08-01T10:02:30;1.08;;;1.08;;
43891;SDS011;29555;45.350;5.578;2022-08-01T10:04:56;1.13;;;1.13;;
43891;SDS011;29555;45.350;5.578;2022-08-01T10:07:21;0.93;;;0.93;;
43891;SDS011;29555;45.350;5.578;2022-08-01T10:09:47;0.85;;;0.80;;
43891;SDS011;29555;45.350;5.578;2022-08-01T10:12:13;3.50;;;1.30;;
43891;SDS011;29555;45.350;5.578;2022-08-01T10:14:41;7.45;;;1.83;;
43891;SDS011;29555;45.350;5.578;2022-08-01T10:17:09;1.58;;;1.48;;
43891;SDS011;29555;45.350;5.578;2022-08-01T10:19:37;5.45;;;1.00;;
43891;SDS011;29555;45.350;5.578;2022-08-01T10:22:07;1.40;;;1.10;;
43891;SDS011;29555;45.350;5.578;2022-08-01T10:24:36;0.82;;;0.82;;
43891;SDS011;29555;45.350;5.578;2022-08-01T10:27:08;1.17;;;1.17;;
43891;SDS011;29555;45.350;5.578;2022-08-01T10:29:49;1.85;;;1.17;;
43891;SDS011;29555;45.350;5.578;2022-08-01T10:32:22;7.78;;;1.00;;
43891;SDS011;29555;45.350;5.578;2022-08-01T10:34:52;1.60;;;1.50;;
43891;SDS011;29555;45.350;5.578;2022-08-01T10:37:17;0.80;;;0.50;;
43891;SDS011;29555;45.350;5.578;2022-08-01T10:39:43;1.63;;;1.52;;
43891;SDS011;29555;45.350;5.578;2022-08-01T10:42:09;1.40;;;1.30;;
43891;SDS011;29555;45.350;5.578;2022-08-01T10:44:36;0.95;;;0.95;;
43891;SDS011;29555;45.350;5.578;2022-08-01T10:47:12;2.67;;;0.95;;
43891;SDS011;29555;45.350;5.578;2022-08-01T10:50:00;0.90;;;0.90;;
43891;SDS011;29555;45.350;5.578;2022-08-01T10:52:29;0.88;;;0.88;;
43891;SDS011;29555;45.350;5.578;2022-08-01T10:55:04;1.15;;;1.08;;
43891;SDS011;29555;45.350;5.578;2022-08-01T10:57:45;1.63;;;1.13;;
43891;SDS011;29555;45.350;5.578;2022-08-01T11:00:18;1.65;;;0.60;;
43891;SDS011;29555;45.350;5.578;2022-08-01T11:02:56;1.08;;;0.98;;
43891;SDS011;29555;45.350;5.578;2022-08-01T11:05:25;1.40;;;1.20;;
43891;SDS011;29555;45.350;5.578;2022-08-01T11:07:53;1.02;;;1.02;;
43891;SDS011;29555;45.350;5.578;2022-08-01T11:13:05;7.68;;;0.77;;
43891;SDS011;29555;45.350;5.578;2022-08-01T11:15:33;4.30;;;0.98;;
43891;SDS011;29555;45.350;5.578;2022-08-01T11:17:59;0.80;;;0.80;;
43891;SDS011;29555;45.350;5.578;2022-08-01T11:20:56;1.02;;;1.02;;
43891;SDS011;29555;45.350;5.578;2022-08-01T11:23:23;1.50;;;0.95;;
43891;SDS011;29555;45.350;5.578;2022-08-01T11:30:51;0.70;;;0.70;;
43891;SDS011;29555;45.350;5.578;2022-08-01T11:33:47;0.60;;;0.60;;
43891;SDS011;29555;45.350;5.578;2022-08-01T11:38:39;0.77;;;0.77;;
43891;SDS011;29555;45.350;5.578;2022-08-01T11:43:36;1.15;;;1.10;;
43891;SDS011;29555;45.350;5.578;2022-08-01T11:46:20;1.20;;;1.00;;
43891;SDS011;29555;45.350;5.578;2022-08-01T11:52:08;0.70;;;0.70;;
43891;SDS011;29555;45.350;5.578;2022-08-01T11:54:45;1.80;;;1.63;;
43891;SDS011;29555;45.350;5.578;2022-08-01T11:57:22;1.45;;;1.02;;
43891;SDS011;29555;45.350;5.578;2022-08-01T12:00:10;1.08;;;1.08;;
43891;SDS011;29555;45.350;5.578;2022-08-01T12:02:37;1.13;;;1.13;;
43891;SDS011;29555;45.350;5.578;2022-08-01T12:05:04;1.27;;;1.05;;
43891;SDS011;29555;45.350;5.578;2022-08-01T12:07:31;1.48;;;1.33;;
43891;SDS011;29555;45.350;5.578;2022-08-01T12:10:02;1.77;;;0.90;;
43891;SDS011;29555;45.350;5.578;2022-08-01T12:12:30;2.78;;;1.23;;
43891;SDS011;29555;45.350;5.578;2022-08-01T12:14:57;1.10;;;1.10;;
43891;SDS011;29555;45.350;5.578;2022-08-01T12:17:43;1.20;;;1.13;;
43891;SDS011;29555;45.350;5.578;2022-08-01T12:20:11;2.38;;;1.00;;
43891;SDS011;29555;45.350;5.578;2022-08-01T12:22:39;2.78;;;1.25;;
43891;SDS011;29555;45.350;5.578;2022-08-01T12:25:09;0.80;;;0.80;;
43891;SDS011;29555;45.350;5.578;2022-08-01T12:27:43;1.05;;;0.93;;
43891;SDS011;29555;45.350;5.578;2022-08-01T12:30:12;1.23;;;0.70;;
43891;SDS011;29555;45.350;5.578;2022-08-01T12:32:40;1.23;;;1.10;;
43891;SDS011;29555;45.350;5.578;2022-08-01T12:37:39;0.75;;;0.75;;
43891;SDS011;29555;45.350;5.578;2022-08-01T12:42:42;1.65;;;1.40;;
43891;SDS011;29555;45.350;5.578;2022-08-01T12:45:09;2.53;;;0.88;;
43891;SDS011;29555;45.350;5.578;2022-08-01T12:47:42;1.35;;;0.77;;
43891;SDS011;29555;45.350;5.578;2022-08-01T12:50:10;1.20;;;0.93;;
43891;SDS011;29555;45.350;5.578;2022-08-01T12:52:38;0.43;;;0.43;;
43891;SDS011;29555;45.350;5.578;2022-08-01T12:55:05;0.50;;;0.50;;
43891;SDS011;29555;45.350;5.578;2022-08-01T12:57:41;1.50;;;0.55;;
43891;SDS011;29555;45.350;5.578;2022-08-01T13:00:19;0.60;;;0.60;;
43891;SDS011;29555;45.350;5.578;2022-08-01T13:02:47;0.85;;;0.85;;
43891;SDS011;29555;45.350;5.578;2022-08-01T13:05:14;2.40;;;1.10;;
43891;SDS011;29555;45.350;5.578;2022-08-01T13:07:49;0.63;;;0.63;;
43891;SDS011;29555;45.350;5.578;2022-08-01T13:10:24;0.73;;;0.73;;
43891;SDS011;29555;45.350;5.578;2022-08-01T13:12:54;1.10;;;1.00;;
43891;SDS011;29555;45.350;5.578;2022-08-01T13:15:26;0.70;;;0.70;;
43891;SDS011;29555;45.350;5.578;2022-08-01T13:17:57;2.13;;;1.40;;
43891;SDS011;29555;45.350;5.578;2022-08-01T13:20:32;0.80;;;0.80;;
43891;SDS011;29555;45.350;5.578;2022-08-01T13:23:15;0.82;;;0.82;;
43891;SDS011;29555;45.350;5.578;2022-08-01T13:25:54;3.63;;;1.50;;
43891;SDS011;29555;45.350;5.578;2022-08-01T13:28:27;0.75;;;0.75;;
43891;SDS011;29555;45.350;5.578;2022-08-01T13:33:23;3.15;;;1.08;;
43891;SDS011;29555;45.350;5.578;2022-08-01T13:35:53;0.65;;;0.65;;
43891;SDS011;29555;45.350;5.578;2022-08-01T13:38:21;0.82;;;0.80;;
43891;SDS011;29555;45.350;5.578;2022-08-01T13:41:06;0.75;;;0.75;;
43891;SDS011;29555;45.350;5.578;2022-08-01T13:43:32;1.33;;;1.10;;
43891;SDS011;29555;45.350;5.578;2022-08-01T13:45:57;1.25;;;1.13;;
43891;SDS011;29555;45.350;5.578;2022-08-01T13:48:23;0.63;;;0.63;;
43891;SDS011;29555;45.350;5.578;2022-08-01T13:50:49;0.98;;;0.90;;
43891;SDS011;29555;45.350;5.578;2022-08-01T13:53:14;0.80;;;0.80;;
43891;SDS011;29555;45.350;5.578;2022-08-01T13:55:39;0.50;;;0.50;;
43891;SDS011;29555;45.350;5.578;2022-08-01T13:58:05;0.65;;;0.65;;
43891;SDS011;29555;45.350;5.578;2022-08-01T14:00:31;0.70;;;0.70;;
43891;SDS011;29555;45.350;5.578;2022-08-01T14:02:57;0.90;;;0.90;;
43891;SDS011;29555;45.350;5.578;2022-08-01T14:05:22;0.88;;;0.75;;
43891;SDS011;29555;45.350;5.578;2022-08-01T14:07:47;0.70;;;0.70;;
43891;SDS011;29555;45.350;5.578;2022-08-01T14:10:13;0.65;;;0.63;;
43891;SDS011;29555;45.350;5.578;2022-08-01T14:12:38;0.60;;;0.60;;
43891;SDS011;29555;45.350;5.578;2022-08-01T14:15:04;0.80;;;0.80;;
43891;SDS011;29555;45.350;5.578;2022-08-01T14:17:30;0.47;;;0.47;;
43891;SDS011;29555;45.350;5.578;2022-08-01T14:19:55;32.35;;;1.10;;
43891;SDS011;29555;45.350;5.578;2022-08-01T14:22:21;1.45;;;1.08;;
43891;SDS011;29555;45.350;5.578;2022-08-01T14:24:46;0.50;;;0.50;;
43891;SDS011;29555;45.350;5.578;2022-08-01T14:27:13;0.35;;;0.35;;
43891;SDS011;29555;45.350;5.578;2022-08-01T14:29:39;3.53;;;0.47;;
43891;SDS011;29555;45.350;5.578;2022-08-01T14:32:04;0.95;;;0.95;;
43891;SDS011;29555;45.350;5.578;2022-08-01T14:34:30;0.55;;;0.55;;
43891;SDS011;29555;45.350;5.578;2022-08-01T14:36:56;0.50;;;0.50;;
43891;SDS011;29555;45.350;5.578;2022-08-01T14:39:21;0.70;;;0.70;;
43891;SDS011;29555;45.350;5.578;2022-08-01T14:41:47;0.80;;;0.75;;
43891;SDS011;29555;45.350;5.578;2022-08-01T14:44:13;3.83;;;0.60;;
43891;SDS011;29555;45.350;5.578;2022-08-01T14:46:38;0.65;;;0.65;;
43891;SDS011;29555;45.350;5.578;2022-08-01T14:49:04;0.82;;;0.82;;
43891;SDS011;29555;45.350;5.578;2022-08-01T14:51:29;0.57;;;0.30;;
43891;SDS011;29555;45.350;5.578;2022-08-01T14:53:58;0.52;;;0.52;;
43891;SDS011;29555;45.350;5.578;2022-08-01T14:56:23;0.73;;;0.73;;
43891;SDS011;29555;45.350;5.578;2022-08-01T14:58:49;1.30;;;0.85;;
43891;SDS011;29555;45.350;5.578;2022-08-01T15:01:14;0.40;;;0.40;;
43891;SDS011;29555;45.350;5.578;2022-08-01T15:03:40;0.30;;;0.30;;
43891;SDS011;29555;45.350;5.578;2022-08-01T15:06:07;0.40;;;0.40;;
43891;SDS011;29555;45.350;5.578;2022-08-01T15:08:34;1.60;;;0.73;;
43891;SDS011;29555;45.350;5.578;2022-08-01T15:10:59;5.07;;;0.57;;
43891;SDS011;29555;45.350;5.578;2022-08-01T15:13:26;0.75;;;0.75;;
43891;SDS011;29555;45.350;5.578;2022-08-01T15:15:51;0.60;;;0.60;;
43891;SDS011;29555;45.350;5.578;2022-08-01T15:18:17;0.82;;;0.82;;
43891;SDS011;29555;45.350;5.578;2022-08-01T15:20:42;0.30;;;0.30;;
43891;SDS011;29555;45.350;5.578;2022-08-01T15:23:08;1.27;;;1.08;;
43891;SDS011;29555;45.350;5.578;2022-08-01T15:25:34;0.30;;;0.30;;
43891;SDS011;29555;45.350;5.578;2022-08-01T15:27:59;0.70;;;0.70;;
43891;SDS011;29555;45.350;5.578;2022-08-01T15:30:25;0.38;;;0.38;;
43891;SDS011;29555;45.350;5.578;2022-08-01T15:32:50;1.98;;;0.65;;
43891;SDS011;29555;45.350;5.578;2022-08-01T15:35:15;0.30;;;0.30;;
43891;SDS011;29555;45.350;5.578;2022-08-01T15:37:41;2.88;;;0.60;;